Time;durP1;ratioP1;P1;durP2;ratioP2;P2;SDS_P1;SDS_P2;PMS_P1;PMS_P2;Temp;Humidity;BMP_temperature;BMP_pressure;BME280_temperature;BME280_humidity;BME280_pressure;Samples;Min_cycle;Max_cycle;Signal;HPM_P1;HPM_P2
2021/11/15 00:01:13;;;;;;;11.45;3.05;;;;;;;;;;4964855;28;20038;-80
2021/11/15 00:03:42;;;;;;;8.30;2.38;;;;;;;;;;4976671;28;20472;-80
2021/11/15 00:06:08;;;;;;;9.38;2.72;;;;;;;;;;4945726;28;20029;-79
2021/11/15 00:08:36;;;;;;;11.18;3.00;;;;;;;;;;4971730;28;20855;-81
2021/11/15 00:11:03;;;;;;;13.30;3.60;;;;;;;;;;4956855;28;20041;-79
2021/11/15 00:13:30;;;;;;;11.55;3.45;;;;;;;;;;4976329;28;20101;-79
2021/11/15 00:15:56;;;;;;;15.23;3.88;;;;;;;;;;4975229;28;20556;-80
2021/11/15 00:18:25;;;;;;;14.02;4.47;;;;;;;;;;4949034;28;20041;-80
2021/11/15 00:20:52;;;;;;;16.20;4.60;;;;;;;;;;4978524;28;20113;-79
2021/11/15 00:23:20;;;;;;;14.88;4.32;;;;;;;;;;4989032;28;20096;-80
2021/11/15 00:25:46;;;;;;;15.18;3.88;;;;;;;;;;4957014;28;20162;-79
2021/11/15 00:28:12;;;;;;;13.77;3.10;;;;;;;;;;4953568;28;20079;-80
2021/11/15 00:30:39;;;;;;;13.80;2.90;;;;;;;;;;4974417;28;20076;-79
2021/11/15 00:33:07;;;;;;;13.65;3.70;;;;;;;;;;4956095;28;20098;-80
2021/11/15 00:35:34;;;;;;;9.23;2.38;;;;;;;;;;4976522;28;20093;-80
2021/11/15 00:38:01;;;;;;;13.38;2.50;;;;;;;;;;4976785;28;20517;-81
2021/11/15 00:40:30;;;;;;;14.63;2.60;;;;;;;;;;4971210;28;20034;-81
2021/11/15 00:42:56;;;;;;;11.95;2.50;;;;;;;;;;4986049;28;20037;-81
2021/11/15 00:45:24;;;;;;;11.10;2.70;;;;;;;;;;4970068;28;20636;-81
2021/11/15 00:47:52;;;;;;;10.02;2.33;;;;;;;;;;4959813;28;20096;-81
2021/11/15 00:50:20;;;;;;;11.52;2.65;;;;;;;;;;4981691;28;21230;-81
2021/11/15 00:52:49;;;;;;;10.73;2.35;;;;;;;;;;4990811;28;20034;-83
2021/11/15 00:55:17;;;;;;;12.60;2.50;;;;;;;;;;4968224;28;20374;-81
2021/11/15 00:57:44;;;;;;;11.10;2.28;;;;;;;;;;4980934;28;20034;-80
2021/11/15 01:00:13;;;;;;;13.70;2.72;;;;;;;;;;4969071;28;20046;-80
2021/11/15 01:02:40;;;;;;;10.90;2.38;;;;;;;;;;4975021;28;20124;-80
2021/11/15 01:05:10;;;;;;;9.23;2.10;;;;;;;;;;4955947;28;20509;-82
2021/11/15 01:07:39;;;;;;;10.88;2.63;;;;;;;;;;4973842;28;20057;-80
2021/11/15 01:10:07;;;;;;;10.98;1.73;;;;;;;;;;4960290;28;20037;-80
2021/11/15 01:12:34;;;;;;;9.20;1.92;;;;;;;;;;4972047;28;20034;-81
2021/11/15 01:15:01;;;;;;;10.70;1.95;;;;;;;;;;4973150;28;20061;-79
2021/11/15 01:17:29;;;;;;;7.95;1.58;;;;;;;;;;4980902;28;20577;-79
2021/11/15 01:19:55;;;;;;;12.35;2.20;;;;;;;;;;4963944;28;20069;-79
2021/11/15 01:22:21;;;;;;;;;;;;;;;;;;4991149;28;22356;-79
2021/11/15 01:24:49;;;;;;;10.77;1.40;;;;;;;;;;4966742;28;19917;-80
2021/11/15 01:27:16;;;;;;;10.43;1.90;;;;;;;;;;4955313;28;20038;-79
2021/11/15 01:29:46;;;;;;;8.77;1.55;;;;;;;;;;4965597;28;20482;-79
2021/11/15 01:32:14;;;;;;;11.32;1.60;;;;;;;;;;4971520;28;20564;-80
2021/11/15 01:34:41;;;;;;;9.32;1.60;;;;;;;;;;4975248;28;20052;-80
2021/11/15 01:37:08;;;;;;;12.80;1.90;;;;;;;;;;4981651;28;20033;-80
2021/11/15 01:39:37;;;;;;;9.27;1.60;;;;;;;;;;4988839;28;20061;-80
2021/11/15 01:42:04;;;;;;;12.73;1.92;;;;;;;;;;4971005;28;20081;-80
2021/11/15 01:44:32;;;;;;;11.60;1.85;;;;;;;;;;4974676;28;20526;-80
2021/11/15 01:46:59;;;;;;;10.70;1.67;;;;;;;;;;4975003;28;20038;-79
2021/11/15 01:49:25;;;;;;;13.25;1.88;;;;;;;;;;4959035;28;20591;-80
2021/11/15 01:51:53;;;;;;;15.20;2.20;;;;;;;;;;4974700;28;20392;-80
2021/11/15 01:54:19;;;;;;;12.82;2.25;;;;;;;;;;4957876;28;20780;-80
2021/11/15 01:56:49;;;;;;;8.80;1.67;;;;;;;;;;4974260;28;20057;-79
2021/11/15 01:59:22;;;;;;;15.25;1.67;;;;;;;;;;4970961;28;20117;-80
2021/11/15 02:01:48;;;;;;;12.32;1.60;;;;;;;;;;4995567;28;20090;-80
2021/11/15 02:04:17;;;;;;;13.40;2.05;;;;;;;;;;4972685;28;20031;-80
2021/11/15 02:06:46;;;;;;;12.10;2.03;;;;;;;;;;4963132;28;20129;-80
2021/11/15 02:09:15;;;;;;;12.18;2.10;;;;;;;;;;4957238;28;20153;-80
2021/11/15 02:11:41;;;;;;;13.05;1.98;;;;;;;;;;4963160;28;20042;-80
2021/11/15 02:14:08;;;;;;;15.32;2.22;;;;;;;;;;4967504;28;20556;-80
2021/11/15 02:16:36;;;;;;;13.63;2.25;;;;;;;;;;4968528;28;20044;-80
2021/11/15 02:19:06;;;;;;;12.75;1.80;;;;;;;;;;4955987;28;20096;-80
2021/11/15 02:21:32;;;;;;;13.77;2.90;;;;;;;;;;4978922;28;20049;-80
2021/11/15 02:23:59;;;;;;;;;;;;;;;;;;4974946;28;20022;-80
2021/11/15 02:26:25;;;;;;;12.80;1.98;;;;;;;;;;4958237;28;19925;-80
2021/11/15 02:28:54;;;;;;;14.40;2.30;;;;;;;;;;4946646;28;20089;-80
2021/11/15 02:31:23;;;;;;;14.63;2.00;;;;;;;;;;4948046;28;21229;-80
2021/11/15 02:33:51;;;;;;;11.32;1.85;;;;;;;;;;4961871;28;20030;-80
2021/11/15 02:36:21;;;;;;;11.60;2.50;;;;;;;;;;4971281;28;20083;-80
2021/11/15 02:38:48;;;;;;;11.13;1.60;;;;;;;;;;4989561;28;20100;-80
2021/11/15 02:41:17;;;;;;;13.30;2.00;;;;;;;;;;4971014;28;20494;-80
2021/11/15 02:43:46;;;;;;;12.82;2.40;;;;;;;;;;4978175;28;20046;-80
2021/11/15 02:46:14;;;;;;;11.30;1.50;;;;;;;;;;4984392;28;20038;-79
2021/11/15 02:48:42;;;;;;;10.05;1.75;;;;;;;;;;4962263;28;20141;-80
2021/11/15 02:51:09;;;;;;;9.82;1.85;;;;;;;;;;4960481;28;20049;-80
2021/11/15 02:53:36;;;;;;;;;;;;;;;;;;4973661;28;20563;-80
2021/11/15 02:56:04;;;;;;;13.15;1.88;;;;;;;;;;4978231;28;19928;-80
2021/11/15 02:58:30;;;;;;;14.43;1.70;;;;;;;;;;4977739;28;20038;-80
2021/11/15 03:00:59;;;;;;;10.02;1.60;;;;;;;;;;4955453;28;20042;-81
2021/11/15 03:03:27;;;;;;;13.82;1.95;;;;;;;;;;4978941;28;20022;-80
2021/11/15 03:05:55;;;;;;;13.77;2.17;;;;;;;;;;4976094;28;20033;-80
2021/11/15 03:08:25;;;;;;;10.90;1.70;;;;;;;;;;4969883;28;20069;-80
2021/11/15 03:11:04;;;;;;;10.07;1.60;;;;;;;;;;4964450;28;20129;-81
2021/11/15 03:13:32;;;;;;;11.60;1.90;;;;;;;;;;4977590;28;20034;-81
2021/11/15 03:16:00;;;;;;;9.30;1.77;;;;;;;;;;4957296;28;20461;-80
2021/11/15 03:18:29;;;;;;;13.38;1.75;;;;;;;;;;4977372;28;20077;-81
2021/11/15 03:21:02;;;;;;;10.30;1.60;;;;;;;;;;4966260;28;20042;-81
2021/11/15 03:23:31;;;;;;;11.75;2.13;;;;;;;;;;4981594;28;20042;-81
2021/11/15 03:25:59;;;;;;;9.48;1.65;;;;;;;;;;4969713;28;20034;-81
2021/11/15 03:28:29;;;;;;;11.25;1.65;;;;;;;;;;4964279;28;20926;-81
2021/11/15 03:31:05;;;;;;;12.77;1.70;;;;;;;;;;4981930;28;20061;-83
2021/11/15 03:33:33;;;;;;;12.25;1.70;;;;;;;;;;4990296;28;20113;-84
2021/11/15 03:36:00;;;;;;;12.20;2.08;;;;;;;;;;4971393;28;20034;-81
2021/11/15 03:38:30;;;;;;;12.07;1.92;;;;;;;;;;4966037;28;20126;-82
2021/11/15 03:40:57;;;;;;;12.93;2.03;;;;;;;;;;4975551;28;20045;-82
2021/11/15 03:43:24;;;;;;;13.52;1.90;;;;;;;;;;4957504;28;20042;-82
2021/11/15 03:45:52;;;;;;;12.55;2.10;;;;;;;;;;4962216;28;20039;-81
2021/11/15 03:48:20;;;;;;;11.75;1.70;;;;;;;;;;4967249;28;20644;-81
2021/11/15 03:50:48;;;;;;;15.10;2.28;;;;;;;;;;4976919;28;20219;-81
2021/11/15 03:53:19;;;;;;;12.20;2.00;;;;;;;;;;4960514;28;20039;-85
2021/11/15 03:55:46;;;;;;;14.57;2.25;;;;;;;;;;4984318;28;20062;-83
2021/11/15 03:58:13;;;;;;;11.05;1.70;;;;;;;;;;4988163;28;20033;-82
2021/11/15 04:00:42;;;;;;;10.98;1.98;;;;;;;;;;4975740;28;20092;-82
2021/11/15 04:03:21;;;;;;;8.93;1.50;;;;;;;;;;4991534;28;20470;-82
2021/11/15 04:05:56;;;;;;;8.88;1.63;;;;;;;;;;4999094;28;20096;-81
2021/11/15 04:08:24;;;;;;;12.23;1.52;;;;;;;;;;4962652;28;20041;-82
2021/11/15 04:10:53;;;;;;;11.48;1.73;;;;;;;;;;4983061;28;20434;-82
2021/11/15 04:13:24;;;;;;;7.22;1.15;;;;;;;;;;4961285;28;20140;-82
2021/11/15 04:15:53;;;;;;;9.45;1.20;;;;;;;;;;4962531;28;20088;-84
2021/11/15 04:18:21;;;;;;;13.30;1.40;;;;;;;;;;4980588;28;23195;-83
2021/11/15 04:20:49;;;;;;;6.30;1.27;;;;;;;;;;4994597;28;20034;-82
2021/11/15 04:23:15;;;;;;;8.73;1.35;;;;;;;;;;4961999;28;20030;-83
2021/11/15 04:25:42;;;;;;;15.10;2.00;;;;;;;;;;4988123;28;20092;-82
2021/11/15 04:28:09;;;;;;;10.93;1.70;;;;;;;;;;4988279;28;20787;-83
2021/11/15 04:30:40;;;;;;;13.27;1.65;;;;;;;;;;4977734;28;20030;-82
2021/11/15 04:33:09;;;;;;;14.88;1.70;;;;;;;;;;4985481;28;20061;-83
2021/11/15 04:35:36;;;;;;;14.70;1.90;;;;;;;;;;4921748;28;20059;-82
2021/11/15 04:38:03;;;;;;;;;;;;;;;;;;4926762;28;20294;-82
2021/11/15 04:40:35;;;;;;;8.20;1.17;;;;;;;;;;4935044;28;19938;-83
2021/11/15 04:43:03;;;;;;;12.07;1.85;;;;;;;;;;4927764;28;20076;-82
2021/11/15 04:45:32;;;;;;;12.48;1.63;;;;;;;;;;4907486;28;20601;-83
2021/11/15 04:47:59;;;;;;;9.32;1.30;;;;;;;;;;4918515;28;20048;-82
2021/11/15 04:50:25;;;;;;;10.63;1.30;;;;;;;;;;4900166;28;20122;-82
2021/11/15 04:52:53;;;;;;;9.15;1.08;;;;;;;;;;4905457;29;20132;-81
2021/11/15 04:55:22;;;;;;;9.90;1.27;;;;;;;;;;4897980;28;20039;-82
2021/11/15 04:57:51;;;;;;;9.75;1.15;;;;;;;;;;4917020;28;20046;-82
2021/11/15 05:00:20;;;;;;;10.18;1.35;;;;;;;;;;4883480;28;20036;-82
2021/11/15 05:02:47;;;;;;;8.23;1.30;;;;;;;;;;4886346;29;20069;-83
2021/11/15 05:05:16;;;;;;;10.07;1.25;;;;;;;;;;4909163;28;20047;-82
2021/11/15 05:07:45;;;;;;;8.45;1.10;;;;;;;;;;4890888;29;20088;-84
2021/11/15 05:10:12;;;;;;;7.07;1.10;;;;;;;;;;4884347;29;20044;-84
2021/11/15 05:12:41;;;;;;;4.75;0.90;;;;;;;;;;4889758;28;20875;-83
2021/11/15 05:15:13;;;;;;;6.43;0.85;;;;;;;;;;4918402;28;20031;-83
2021/11/15 05:17:39;;;;;;;4.53;0.85;;;;;;;;;;4915769;28;20043;-83
2021/11/15 05:20:05;;;;;;;;;;;;;;;;;;4943293;28;20153;-83
2021/11/15 05:22:32;;;;;;;5.50;0.95;;;;;;;;;;4947935;28;19988;-83
2021/11/15 05:24:59;;;;;;;4.63;0.63;;;;;;;;;;4958207;28;20038;-83
2021/11/15 05:27:28;;;;;;;2.70;0.68;;;;;;;;;;4971355;28;20038;-83
2021/11/15 05:29:57;;;;;;;7.22;1.30;;;;;;;;;;4972260;28;20038;-83
2021/11/15 05:32:26;;;;;;;6.15;0.98;;;;;;;;;;4953423;28;20045;-83
2021/11/15 05:34:52;;;;;;;3.90;0.70;;;;;;;;;;4949634;28;20060;-84
2021/11/15 05:37:19;;;;;;;4.63;1.00;;;;;;;;;;4953473;28;20097;-84
2021/11/15 05:39:46;;;;;;;4.82;0.80;;;;;;;;;;4956512;28;20041;-84
2021/11/15 05:42:13;;;;;;;4.55;0.80;;;;;;;;;;4935509;28;21129;-84
2021/11/15 05:44:39;;;;;;;7.85;1.08;;;;;;;;;;4947068;28;20039;-84
2021/11/15 05:47:06;;;;;;;6.78;1.35;;;;;;;;;;4964590;28;20039;-84
2021/11/15 05:49:33;;;;;;;9.35;1.40;;;;;;;;;;4956467;28;20378;-84
2021/11/15 05:52:01;;;;;;;5.68;1.08;;;;;;;;;;4968742;28;20086;-83
2021/11/15 05:54:28;;;;;;;4.15;0.90;;;;;;;;;;4958014;28;21036;-83
2021/11/15 05:56:55;;;;;;;5.05;0.85;;;;;;;;;;4993107;28;20128;-84
2021/11/15 05:59:23;;;;;;;4.60;0.80;;;;;;;;;;4997797;28;20517;-84
2021/11/15 06:01:49;;;;;;;3.92;0.75;;;;;;;;;;4977594;28;20125;-84
2021/11/15 06:04:16;;;;;;;5.38;0.85;;;;;;;;;;4959651;28;20092;-83
2021/11/15 06:06:44;;;;;;;2.33;0.68;;;;;;;;;;4967154;28;20045;-84
2021/11/15 06:09:14;;;;;;;5.35;0.80;;;;;;;;;;4987121;28;20494;-84
2021/11/15 06:11:40;;;;;;;3.85;0.70;;;;;;;;;;4963575;28;20038;-84
2021/11/15 06:14:07;;;;;;;3.33;0.60;;;;;;;;;;4960134;28;20080;-84
2021/11/15 06:16:34;;;;;;;4.13;0.90;;;;;;;;;;4975175;28;21172;-84
2021/11/15 06:19:01;;;;;;;2.88;0.73;;;;;;;;;;4988349;28;20108;-83
2021/11/15 06:21:28;;;;;;;4.60;0.80;;;;;;;;;;4978381;28;20022;-82
2021/11/15 06:23:56;;;;;;;6.03;0.80;;;;;;;;;;4975586;28;20029;-83
2021/11/15 06:26:22;;;;;;;2.83;0.88;;;;;;;;;;4956335;28;20524;-83
2021/11/15 06:28:49;;;;;;;4.22;0.85;;;;;;;;;;4979419;28;20044;-83
2021/11/15 06:31:18;;;;;;;3.58;0.80;;;;;;;;;;4982392;28;20560;-83
2021/11/15 06:33:49;;;;;;;3.08;0.80;;;;;;;;;;4976983;28;20042;-83
2021/11/15 06:36:17;;;;;;;5.40;1.10;;;;;;;;;;4972639;28;20588;-82
2021/11/15 06:38:45;;;;;;;3.33;0.73;;;;;;;;;;4979362;28;20575;-83
2021/11/15 06:41:11;;;;;;;4.28;0.77;;;;;;;;;;4975022;28;20042;-83
2021/11/15 06:43:37;;;;;;;3.28;0.80;;;;;;;;;;4965795;28;20037;-84
2021/11/15 06:46:05;;;;;;;5.18;0.82;;;;;;;;;;4988515;28;20076;-84
2021/11/15 06:48:37;;;;;;;3.25;0.60;;;;;;;;;;4958222;28;20054;-85
2021/11/15 06:51:03;;;;;;;3.53;0.70;;;;;;;;;;4954372;28;20069;-83
2021/11/15 06:53:31;;;;;;;;;;;;;;;;;;4986487;28;20057;-83
2021/11/15 06:56:01;;;;;;;7.18;0.95;;;;;;;;;;4941368;28;20285;-83
2021/11/15 06:58:29;;;;;;;6.35;1.17;;;;;;;;;;4946934;28;20041;-82
2021/11/15 07:00:56;;;;;;;6.35;1.98;;;;;;;;;;4994052;28;20057;-82
2021/11/15 07:03:22;;;;;;;5.63;1.10;;;;;;;;;;4954700;28;20033;-82
2021/11/15 07:05:50;;;;;;;6.07;1.33;;;;;;;;;;4960970;28;20027;-82
2021/11/15 07:08:17;;;;;;;7.75;2.08;;;;;;;;;;4985104;28;20049;-84
2021/11/15 07:10:43;;;;;;;6.45;1.42;;;;;;;;;;4967323;28;20038;-82
2021/11/15 07:13:09;;;;;;;;;;;;;;;;;;4961924;28;20031;-82
2021/11/15 07:15:36;;;;;;;6.05;0.95;;;;;;;;;;4979698;28;20428;-83
2021/11/15 07:18:03;;;;;;;8.27;1.20;;;;;;;;;;4941991;28;20027;-83
2021/11/15 07:20:30;;;;;;;5.25;1.17;;;;;;;;;;4951024;28;21182;-83
2021/11/15 07:22:57;;;;;;;7.43;1.20;;;;;;;;;;4964856;28;20039;-83
2021/11/15 07:25:23;;;;;;;9.10;1.63;;;;;;;;;;4969894;28;20035;-83
2021/11/15 07:27:52;;;;;;;5.85;1.10;;;;;;;;;;4959014;28;20123;-83
2021/11/15 07:30:20;;;;;;;8.60;1.50;;;;;;;;;;4973725;28;20028;-82
2021/11/15 07:32:50;;;;;;;10.57;1.52;;;;;;;;;;4958062;28;20030;-83
2021/11/15 07:35:17;;;;;;;8.65;1.85;;;;;;;;;;4941299;28;20037;-83
2021/11/15 07:37:44;;;;;;;11.13;1.92;;;;;;;;;;4947038;28;20040;-82
2021/11/15 07:40:14;;;;;;;9.30;1.70;;;;;;;;;;4927085;28;20121;-85
2021/11/15 07:42:40;;;;;;;9.52;1.77;;;;;;;;;;4942322;28;20111;-83
2021/11/15 07:45:07;;;;;;;7.63;1.65;;;;;;;;;;4955038;28;20039;-84
2021/11/15 07:47:35;;;;;;;11.52;1.70;;;;;;;;;;4945158;28;20066;-83
2021/11/15 07:50:02;;;;;;;11.07;1.98;;;;;;;;;;4971879;28;20047;-83
2021/11/15 07:52:28;;;;;;;13.10;2.40;;;;;;;;;;4945180;28;20086;-83
2021/11/15 07:54:56;;;;;;;9.90;2.00;;;;;;;;;;4944136;28;20097;-83
2021/11/15 07:57:23;;;;;;;12.95;1.77;;;;;;;;;;4941931;28;20494;-83
2021/11/15 07:59:50;;;;;;;12.32;1.98;;;;;;;;;;4947082;28;20044;-84
2021/11/15 08:02:16;;;;;;;9.98;2.05;;;;;;;;;;4954002;28;20034;-84
2021/11/15 08:04:45;;;;;;;11.60;2.08;;;;;;;;;;4987863;28;20026;-82
2021/11/15 08:07:12;;;;;;;11.40;2.33;;;;;;;;;;4995489;28;20042;-83
2021/11/15 08:09:40;;;;;;;;;;;;;;;;;;4966934;28;20478;-83
2021/11/15 08:12:09;;;;;;;13.60;2.15;;;;;;;;;;4975198;28;19909;-84
2021/11/15 08:14:38;;;;;;;9.82;1.88;;;;;;;;;;4976943;28;20034;-84
2021/11/15 08:17:05;;;;;;;10.23;1.88;;;;;;;;;;4944960;28;20044;-83
2021/11/15 08:19:35;;;;;;;12.68;2.17;;;;;;;;;;4970011;28;20042;-83
2021/11/15 08:22:01;;;;;;;12.85;2.17;;;;;;;;;;4973596;28;20030;-83
2021/11/15 08:24:34;;;;;;;11.90;2.15;;;;;;;;;;4977141;28;20029;-85
2021/11/15 08:27:03;;;;;;;9.60;2.05;;;;;;;;;;4977292;28;20034;-84
2021/11/15 08:29:32;;;;;;;10.30;2.33;;;;;;;;;;4980906;28;20068;-84
2021/11/15 08:32:03;;;;;;;11.70;2.53;;;;;;;;;;4981540;28;20030;-84
2021/11/15 08:34:30;;;;;;;10.65;2.25;;;;;;;;;;4966490;28;20049;-84
2021/11/15 08:36:56;;;;;;;9.80;2.13;;;;;;;;;;4975756;28;20048;-83
2021/11/15 08:39:24;;;;;;;11.32;2.20;;;;;;;;;;4976738;28;20032;-84
2021/11/15 08:41:55;;;;;;;11.15;2.42;;;;;;;;;;4993981;28;20509;-83
2021/11/15 08:44:22;;;;;;;11.05;2.65;;;;;;;;;;4962106;28;20045;-85
2021/11/15 08:46:52;;;;;;;13.93;2.80;;;;;;;;;;4996874;28;20540;-84
2021/11/15 08:49:20;;;;;;;13.25;2.30;;;;;;;;;;4952591;28;23704;-84
2021/11/15 08:51:49;;;;;;;13.45;2.25;;;;;;;;;;4954992;28;20141;-84
2021/11/15 08:54:17;;;;;;;12.05;1.90;;;;;;;;;;4940366;28;20029;-84
2021/11/15 08:56:56;;;;;;;12.20;2.20;;;;;;;;;;4959066;28;20043;-84
2021/11/15 08:59:23;;;;;;;11.75;1.95;;;;;;;;;;4938422;28;20084;-84
2021/11/15 09:01:50;;;;;;;9.50;1.63;;;;;;;;;;4960614;28;20075;-84
2021/11/15 09:04:17;;;;;;;9.85;1.90;;;;;;;;;;4946593;28;21037;-84
2021/11/15 09:06:46;;;;;;;11.30;2.35;;;;;;;;;;4963769;28;20034;-85
2021/11/15 09:09:15;;;;;;;12.52;2.25;;;;;;;;;;4943286;28;20121;-84
2021/11/15 09:11:45;;;;;;;11.45;1.98;;;;;;;;;;4968695;28;20018;-85
2021/11/15 09:14:12;;;;;;;14.68;2.33;;;;;;;;;;4962987;28;20037;-86
2021/11/15 09:16:39;;;;;;;10.15;2.17;;;;;;;;;;4954232;28;20038;-85
2021/11/15 09:19:06;;;;;;;11.95;2.53;;;;;;;;;;4974070;28;20039;-84
2021/11/15 09:21:33;;;;;;;10.77;2.03;;;;;;;;;;4958228;28;20094;-85
2021/11/15 09:24:00;;;;;;;9.65;1.92;;;;;;;;;;4961597;28;20135;-85
2021/11/15 09:26:27;;;;;;;8.80;1.88;;;;;;;;;;4962635;28;20042;-84
2021/11/15 09:28:55;;;;;;;11.30;1.85;;;;;;;;;;4947881;28;20679;-84
2021/11/15 09:31:22;;;;;;;11.45;1.67;;;;;;;;;;4948593;28;20116;-84
2021/11/15 09:33:52;;;;;;;13.85;2.10;;;;;;;;;;4949360;28;20069;-84
2021/11/15 09:36:23;;;;;;;12.88;2.03;;;;;;;;;;4953903;28;20030;-85
2021/11/15 09:38:57;;;;;;;11.05;1.70;;;;;;;;;;4950527;28;20121;-85
2021/11/15 09:41:26;;;;;;;;;;;;;;;;;;4948152;28;20125;-83
2021/11/15 09:43:54;;;;;;;9.75;1.90;;;;;;;;;;4937858;28;19966;-84
2021/11/15 09:46:23;;;;;;;14.20;2.88;;;;;;;;;;4937457;28;20062;-84
2021/11/15 09:48:51;;;;;;;11.23;2.08;;;;;;;;;;4954371;28;20065;-82
2021/11/15 09:51:18;;;;;;;11.27;2.20;;;;;;;;;;4959827;28;20038;-82
2021/11/15 09:53:46;;;;;;;8.90;2.30;;;;;;;;;;4961789;28;20525;-82
2021/11/15 09:56:19;;;;;;;8.13;1.80;;;;;;;;;;4990910;28;20100;-82
2021/11/15 09:58:45;;;;;;;9.52;1.80;;;;;;;;;;4950771;28;20718;-83
2021/11/15 10:01:12;;;;;;;11.38;1.60;;;;;;;;;;4972428;28;20041;-82
2021/11/15 10:03:39;;;;;;;9.38;2.03;;;;;;;;;;4991794;28;20026;-82
2021/11/15 10:06:06;;;;;;;10.68;1.92;;;;;;;;;;4937590;28;20663;-84
2021/11/15 10:08:49;;;;;;;9.48;1.90;;;;;;;;;;4972750;28;20034;-81
2021/11/15 10:11:18;;;;;;;13.98;2.35;;;;;;;;;;4953683;28;20027;-83
2021/11/15 10:13:44;;;;;;;13.13;2.95;;;;;;;;;;4952343;28;20034;-82
2021/11/15 10:16:11;;;;;;;10.00;1.88;;;;;;;;;;4983978;28;20042;-82
2021/11/15 10:18:53;;;;;;;14.35;2.72;;;;;;;;;;4984459;28;20034;-82
2021/11/15 10:21:27;;;;;;;10.98;2.17;;;;;;;;;;4966599;28;20977;-82
2021/11/15 10:23:59;;;;;;;12.02;2.15;;;;;;;;;;4960696;28;20046;-84
2021/11/15 10:26:29;;;;;;;10.02;1.58;;;;;;;;;;4958567;28;20053;-82
2021/11/15 10:28:59;;;;;;;11.98;2.20;;;;;;;;;;4971265;28;20113;-82
2021/11/15 10:31:26;;;;;;;9.48;1.90;;;;;;;;;;4985708;28;20471;-82
2021/11/15 10:33:52;;;;;;;17.10;2.35;;;;;;;;;;4954755;28;20541;-82
2021/11/15 10:36:18;;;;;;;9.95;2.30;;;;;;;;;;4961735;28;23038;-82
2021/11/15 10:38:50;;;;;;;13.30;2.33;;;;;;;;;;4963053;28;20734;-82
2021/11/15 10:41:21;;;;;;;12.55;2.20;;;;;;;;;;4950776;28;20034;-84
2021/11/15 10:43:56;;;;;;;13.20;2.33;;;;;;;;;;4955564;28;20042;-84
2021/11/15 10:46:34;;;;;;;11.90;1.90;;;;;;;;;;4973622;28;20656;-83
2021/11/15 10:49:02;;;;;;;14.38;2.67;;;;;;;;;;4981859;28;20809;-81
2021/11/15 10:51:45;;;;;;;11.30;2.53;;;;;;;;;;4957777;28;20034;-82
2021/11/15 10:54:32;;;;;;;12.45;2.22;;;;;;;;;;4960851;28;20026;-82
2021/11/15 10:57:17;;;;;;;9.88;2.22;;;;;;;;;;4993829;28;20042;-83
2021/11/15 10:59:44;;;;;;;15.98;2.95;;;;;;;;;;4930855;28;20044;-82
2021/11/15 11:02:28;;;;;;;12.57;2.42;;;;;;;;;;4952492;28;20049;-83
2021/11/15 11:05:12;;;;;;;14.48;2.03;;;;;;;;;;4984267;28;20042;-82
2021/11/15 11:07:39;;;;;;;12.82;2.10;;;;;;;;;;4967696;28;20090;-82
2021/11/15 11:10:08;;;;;;;13.40;2.60;;;;;;;;;;4956067;28;20057;-82
2021/11/15 11:12:36;;;;;;;12.13;2.22;;;;;;;;;;4958363;28;20053;-82
2021/11/15 11:15:23;;;;;;;12.82;2.70;;;;;;;;;;4983265;28;20081;-82
2021/11/15 11:18:00;;;;;;;13.85;3.00;;;;;;;;;;4980029;28;20057;-82
2021/11/15 11:20:49;;;;;;;10.88;1.90;;;;;;;;;;4977518;28;20042;-82
2021/11/15 11:26:16;;;;;;;7.55;1.83;;;;;;;;;;4933974;28;20043;-82
2021/11/15 11:28:44;;;;;;;9.75;1.60;;;;;;;;;;4918778;28;20035;-82
2021/11/15 11:31:14;;;;;;;10.60;1.98;;;;;;;;;;4920000;28;20031;-82
2021/11/15 11:33:41;;;;;;;9.98;1.73;;;;;;;;;;4942924;28;22072;-82
2021/11/15 11:36:09;;;;;;;9.35;2.25;;;;;;;;;;4913564;28;20019;-82
2021/11/15 11:38:37;;;;;;;12.98;2.33;;;;;;;;;;4926516;28;20283;-84
2021/11/15 11:41:04;;;;;;;11.30;2.08;;;;;;;;;;4936906;28;20039;-83
2021/11/15 11:43:30;;;;;;;9.30;1.90;;;;;;;;;;4921933;28;20030;-82
2021/11/15 11:45:57;;;;;;;11.52;2.78;;;;;;;;;;4945668;28;20535;-82
2021/11/15 11:48:25;;;;;;;13.77;2.92;;;;;;;;;;4933397;28;20462;-83
2021/11/15 11:50:52;;;;;;;13.15;2.08;;;;;;;;;;4932901;28;20042;-83
2021/11/15 11:53:21;;;;;;;12.10;2.85;;;;;;;;;;4923071;28;20031;-83
2021/11/15 11:55:48;;;;;;;11.82;1.98;;;;;;;;;;4937963;28;20038;-82
2021/11/15 11:58:25;;;;;;;11.80;2.33;;;;;;;;;;4936676;28;20039;-82
2021/11/15 12:00:54;;;;;;;10.27;2.55;;;;;;;;;;4932015;28;20104;-82
2021/11/15 12:03:22;;;;;;;12.25;3.22;;;;;;;;;;4919041;28;20911;-82
2021/11/15 12:05:53;;;;;;;10.60;2.03;;;;;;;;;;4990971;28;20174;-82
2021/11/15 12:08:40;;;;;;;11.18;1.95;;;;;;;;;;4953091;28;20073;-81
2021/11/15 12:11:22;;;;;;;11.50;2.72;;;;;;;;;;4945827;28;20039;-81
2021/11/15 12:13:50;;;;;;;14.65;5.25;;;;;;;;;;4956633;28;20125;-82
2021/11/15 12:16:17;;;;;;;12.70;3.40;;;;;;;;;;4950771;28;20802;-81
2021/11/15 12:18:55;;;;;;;12.27;2.60;;;;;;;;;;4986670;28;20034;-81
2021/11/15 12:21:23;;;;;;;8.48;2.17;;;;;;;;;;4965124;28;20035;-82
2021/11/15 12:23:55;;;;;;;14.02;2.70;;;;;;;;;;4953418;28;20033;-82
2021/11/15 12:26:36;;;;;;;12.32;2.60;;;;;;;;;;4948187;28;20464;-82
2021/11/15 12:29:15;;;;;;;10.40;2.50;;;;;;;;;;4980203;28;20081;-81
2021/11/15 12:31:46;;;;;;;14.20;3.60;;;;;;;;;;4977115;28;20034;-83
2021/11/15 12:34:13;;;;;;;11.90;2.85;;;;;;;;;;4949210;28;20133;-82
2021/11/15 12:36:46;;;;;;;11.18;2.80;;;;;;;;;;4985051;28;20045;-82
2021/11/15 12:39:23;;;;;;;11.18;3.20;;;;;;;;;;4958005;28;20033;-82
2021/11/15 12:41:52;;;;;;;10.27;2.58;;;;;;;;;;4954879;28;20122;-82
2021/11/15 12:44:22;;;;;;;10.10;2.22;;;;;;;;;;4966814;28;23837;-83
2021/11/15 12:46:50;;;;;;;8.05;2.10;;;;;;;;;;4966236;28;20517;-82
2021/11/15 12:49:25;;;;;;;9.82;2.40;;;;;;;;;;4966017;28;23255;-82
2021/11/15 12:52:11;;;;;;;12.00;2.40;;;;;;;;;;4994107;28;20052;-83
2021/11/15 12:54:57;;;;;;;9.02;2.60;;;;;;;;;;4997677;28;20038;-82
2021/11/15 12:57:24;;;;;;;12.80;2.30;;;;;;;;;;5001507;28;20038;-82
2021/11/15 12:59:55;;;;;;;12.25;2.45;;;;;;;;;;5000042;28;20558;-82
2021/11/15 13:02:22;;;;;;;12.18;3.10;;;;;;;;;;4969205;28;20556;-83
2021/11/15 13:04:48;;;;;;;10.82;2.30;;;;;;;;;;4962134;28;20068;-82
2021/11/15 13:07:16;;;;;;;10.10;2.63;;;;;;;;;;4959801;28;20034;-83
2021/11/15 13:09:46;;;;;;;12.65;3.35;;;;;;;;;;4979904;28;20037;-83
2021/11/15 13:12:12;;;;;;;10.43;2.35;;;;;;;;;;4956405;28;20548;-82
2021/11/15 13:14:38;;;;;;;;;;;;;;;;;;4966188;28;20033;-82
2021/11/15 13:17:04;;;;;;;10.88;3.83;;;;;;;;;;4993173;28;19924;-83
2021/11/15 13:19:31;;;;;;;11.73;3.17;;;;;;;;;;4989967;28;20067;-83
2021/11/15 13:21:58;;;;;;;9.80;2.72;;;;;;;;;;4962265;28;20065;-82
2021/11/15 13:24:24;;;;;;;10.38;2.33;;;;;;;;;;4975063;28;21031;-84
2021/11/15 13:26:53;;;;;;;8.60;2.30;;;;;;;;;;4991561;28;20030;-81
2021/11/15 13:29:23;;;;;;;11.15;2.40;;;;;;;;;;4964938;28;21879;-83
2021/11/15 13:31:50;;;;;;;8.77;2.40;;;;;;;;;;4976681;28;20049;-81
2021/11/15 13:34:19;;;;;;;10.75;2.25;;;;;;;;;;4960712;28;20038;-82
2021/11/15 13:36:46;;;;;;;9.93;2.08;;;;;;;;;;4990730;28;20117;-82
2021/11/15 13:39:12;;;;;;;6.78;2.00;;;;;;;;;;4975347;28;20044;-81
2021/11/15 13:41:39;;;;;;;11.45;2.05;;;;;;;;;;4980132;28;20120;-83
2021/11/15 13:44:05;;;;;;;11.57;3.22;;;;;;;;;;4987537;28;20037;-82
2021/11/15 13:46:32;;;;;;;13.85;2.53;;;;;;;;;;4964530;28;20145;-83
2021/11/15 13:48:59;;;;;;;12.05;2.70;;;;;;;;;;4984479;28;20046;-82
2021/11/15 13:51:26;;;;;;;12.60;3.05;;;;;;;;;;4956027;28;20034;-82
2021/11/15 13:53:52;;;;;;;;;;;;;;;;;;4990529;28;20022;-82
2021/11/15 13:56:18;;;;;;;15.70;3.85;;;;;;;;;;4983477;28;20337;-84
2021/11/15 13:58:44;;;;;;;11.18;2.63;;;;;;;;;;4969946;28;20532;-83
2021/11/15 14:01:11;;;;;;;13.75;3.40;;;;;;;;;;4992669;28;20057;-84
2021/11/15 14:03:38;;;;;;;14.70;3.30;;;;;;;;;;4968602;28;20061;-83
2021/11/15 14:06:05;;;;;;;13.13;4.30;;;;;;;;;;4966471;28;20034;-83
2021/11/15 14:08:32;;;;;;;14.10;2.63;;;;;;;;;;5003214;28;20064;-83
2021/11/15 14:11:03;;;;;;;13.27;3.22;;;;;;;;;;4973382;28;20042;-82
2021/11/15 14:13:29;;;;;;;13.20;3.13;;;;;;;;;;4980249;28;20038;-82
2021/11/15 14:15:56;;;;;;;10.85;2.95;;;;;;;;;;4983534;28;20076;-83
2021/11/15 14:18:22;;;;;;;16.08;3.55;;;;;;;;;;4970207;28;20125;-82
2021/11/15 14:20:49;;;;;;;10.75;2.72;;;;;;;;;;4957760;28;20027;-83
2021/11/15 14:23:15;;;;;;;11.85;2.65;;;;;;;;;;4971245;28;20026;-82
2021/11/15 14:25:41;;;;;;;;;;;;;;;;;;4959860;28;20065;-83
2021/11/15 14:28:11;;;;;;;29.55;15.57;;;;;;;;;;4978075;28;19952;-84
2021/11/15 14:30:39;;;;;;;26.65;13.63;;;;;;;;;;4977885;28;20030;-82
2021/11/15 14:33:06;;;;;;;21.88;10.70;;;;;;;;;;4984249;28;20048;-83
2021/11/15 14:35:34;;;;;;;36.92;20.88;;;;;;;;;;4982425;28;20124;-83
2021/11/15 14:38:02;;;;;;;21.05;11.15;;;;;;;;;;4956195;28;20042;-82
2021/11/15 14:40:29;;;;;;;12.70;5.03;;;;;;;;;;4971758;28;20136;-83
2021/11/15 14:42:55;;;;;;;12.85;5.80;;;;;;;;;;4979950;28;20045;-84
2021/11/15 14:45:21;;;;;;;13.50;3.85;;;;;;;;;;4968322;28;22478;-84
2021/11/15 14:47:47;;;;;;;;;;;;;;;;;;4960455;28;20034;-83
2021/11/15 14:50:13;;;;;;;13.07;2.58;;;;;;;;;;4972462;28;19922;-85